Time;durP1;ratioP1;P1;durP2;ratioP2;P2;SDS_P1;SDS_P2;PMS_P1;PMS_P2;Temp;Humidity;BMP_temperature;BMP_pressure;BME280_temperature;BME280_humidity;BME280_pressure;Samples;Min_cycle;Max_cycle;Signal;HPM_P1;HPM_P2
2022/02/28 00:00:23;;;;;;;;;;;21.50;30.60;;;;;;473773;252;1058;-39
2022/02/28 00:02:24;;;;;;;;;;;21.50;30.60;;;;;;473745;251;1272;-39
2022/02/28 00:04:26;;;;;;;;;;;21.40;30.70;;;;;;476099;249;1578;-39
2022/02/28 00:06:27;;;;;;;;;;;21.50;30.70;;;;;;473658;252;1224;-39
2022/02/28 00:08:28;;;;;;;;;;;21.50;30.60;;;;;;473722;251;2201;-39
2022/02/28 00:10:30;;;;;;;;;;;21.40;30.60;;;;;;476022;249;1204;-39
2022/02/28 00:12:31;;;;;;;;;;;21.50;30.70;;;;;;473298;252;1178;-39
2022/02/28 00:14:32;;;;;;;;;;;21.50;30.60;;;;;;474245;251;1666;-39
2022/02/28 00:16:34;;;;;;;;;;;21.50;30.60;;;;;;476130;249;1137;-39
2022/02/28 00:18:35;;;;;;;;;;;21.50;30.60;;;;;;473686;252;1229;-39
2022/02/28 00:20:36;;;;;;;;;;;21.50;30.60;;;;;;473805;251;1263;-39
2022/02/28 00:22:38;;;;;;;;;;;21.50;30.60;;;;;;476133;249;1224;-39
2022/02/28 00:24:39;;;;;;;;;;;21.40;30.60;;;;;;473821;252;1049;-39
2022/02/28 00:26:40;;;;;;;;;;;21.40;30.60;;;;;;474074;251;1359;-39
2022/02/28 00:28:41;;;;;;;;;;;21.40;30.70;;;;;;476506;249;2128;-39
2022/02/28 00:30:43;;;;;;;;;;;21.50;30.70;;;;;;473790;252;1510;-39
2022/02/28 00:32:44;;;;;;;;;;;21.50;30.60;;;;;;474030;251;1291;-39
2022/02/28 00:34:45;;;;;;;;;;;21.50;30.60;;;;;;476016;249;1250;-39
2022/02/28 00:36:47;;;;;;;;;;;21.40;30.60;;;;;;473291;252;1320;-39
2022/02/28 00:38:48;;;;;;;;;;;21.50;30.60;;;;;;473918;251;1069;-39
2022/02/28 00:40:49;;;;;;;;;;;21.40;30.50;;;;;;476029;249;1199;-39
2022/02/28 00:42:51;;;;;;;;;;;21.40;30.60;;;;;;473722;252;1184;-39
2022/02/28 00:44:53;;;;;;;;;;;21.40;30.60;;;;;;474001;251;1052;-39
2022/02/28 00:46:54;;;;;;;;;;;21.40;30.60;;;;;;475929;249;2479;-39
2022/02/28 00:48:55;;;;;;;;;;;21.50;30.60;;;;;;473355;252;2190;-39
2022/02/28 00:50:56;;;;;;;;;;;21.40;30.60;;;;;;474100;251;1712;-39
2022/02/28 00:52:57;;;;;;;;;;;21.40;30.60;;;;;;476079;249;1169;-39
2022/02/28 00:54:59;;;;;;;;;;;21.50;30.60;;;;;;473385;252;1041;-39
2022/02/28 00:57:00;;;;;;;;;;;21.40;30.50;;;;;;474140;251;1079;-39
2022/02/28 00:59:01;;;;;;;;;;;21.40;30.50;;;;;;476504;249;1029;-39
2022/02/28 01:01:03;;;;;;;;;;;21.50;30.50;;;;;;473432;252;1189;-39
2022/02/28 01:03:04;;;;;;;;;;;21.50;30.60;;;;;;474106;251;1090;-39
2022/02/28 01:05:05;;;;;;;;;;;21.50;30.60;;;;;;476154;249;1380;-39
2022/02/28 01:07:07;;;;;;;;;;;21.50;30.50;;;;;;473292;252;1063;-39
2022/02/28 01:09:08;;;;;;;;;;;21.50;30.50;;;;;;473828;251;2134;-39
2022/02/28 01:11:09;;;;;;;;;;;21.50;30.50;;;;;;476039;249;1048;-39
2022/02/28 01:13:11;;;;;;;;;;;21.50;30.60;;;;;;473362;252;1013;-39
2022/02/28 01:15:12;;;;;;;;;;;21.50;30.60;;;;;;473791;251;1035;-39
2022/02/28 01:17:13;;;;;;;;;;;21.50;30.60;;;;;;476009;249;1197;-39
2022/02/28 01:19:15;;;;;;;;;;;21.40;30.60;;;;;;473305;252;1316;-39
2022/02/28 01:21:16;;;;;;;;;;;21.40;30.70;;;;;;473973;251;1161;-39
2022/02/28 01:23:17;;;;;;;;;;;21.40;30.60;;;;;;476077;249;1163;-39
2022/02/28 01:25:19;;;;;;;;;;;21.50;30.60;;;;;;473357;252;1007;-39
2022/02/28 01:27:22;;;;;;;;;;;21.40;30.60;;;;;;473826;251;1276;-39
2022/02/28 01:29:22;;;;;;;;;;;21.50;30.70;;;;;;475938;250;2191;-39
2022/02/28 01:31:23;;;;;;;;;;;21.50;30.60;;;;;;473745;252;1160;-39
2022/02/28 01:33:24;;;;;;;;;;;21.40;30.60;;;;;;474176;251;1075;-39
2022/02/28 01:35:25;;;;;;;;;;;21.40;30.60;;;;;;475941;249;1322;-39
2022/02/28 01:37:27;;;;;;;;;;;21.50;30.60;;;;;;473285;252;1184;-39
2022/02/28 01:39:28;;;;;;;;;;;21.50;30.50;;;;;;473981;251;1035;-39
2022/02/28 01:41:29;;;;;;;;;;;21.50;30.60;;;;;;476269;249;1416;-39
2022/02/28 01:43:30;;;;;;;;;;;21.50;30.60;;;;;;473814;252;1219;-39
2022/02/28 01:45:32;;;;;;;;;;;21.50;30.50;;;;;;473776;251;1214;-39
2022/02/28 01:47:33;;;;;;;;;;;21.50;30.60;;;;;;476002;249;1529;-39
2022/02/28 01:49:34;;;;;;;;;;;21.50;30.50;;;;;;473363;252;2185;-39
2022/02/28 01:51:36;;;;;;;;;;;21.50;30.60;;;;;;474156;251;1415;-39
2022/02/28 01:53:37;;;;;;;;;;;21.50;30.60;;;;;;476009;249;1096;-39
2022/02/28 01:55:38;;;;;;;;;;;21.50;30.60;;;;;;473319;252;1137;-39
2022/02/28 01:57:40;;;;;;;;;;;21.40;30.60;;;;;;473682;251;1391;-39
2022/02/28 01:59:41;;;;;;;;;;;21.50;30.60;;;;;;476061;249;990;-39
2022/02/28 02:01:43;;;;;;;;;;;21.40;30.60;;;;;;473457;252;1354;-39
2022/02/28 02:03:44;;;;;;;;;;;21.40;30.60;;;;;;473690;251;1267;-39
2022/02/28 02:05:46;;;;;;;;;;;21.50;30.60;;;;;;476086;249;1289;-39
2022/02/28 02:07:47;;;;;;;;;;;21.50;30.60;;;;;;473677;252;1197;-39
2022/02/28 02:09:48;;;;;;;;;;;21.50;30.60;;;;;;473681;251;2197;-39
2022/02/28 02:11:49;;;;;;;;;;;21.50;30.60;;;;;;476291;249;1355;-39
2022/02/28 02:13:51;;;;;;;;;;;21.50;30.60;;;;;;473752;252;1046;-39
2022/02/28 02:15:52;;;;;;;;;;;21.50;30.60;;;;;;474184;251;1354;-39
2022/02/28 02:17:53;;;;;;;;;;;21.50;30.70;;;;;;476399;249;1199;-39
2022/02/28 02:19:55;;;;;;;;;;;21.50;30.60;;;;;;473705;252;1332;-39
2022/02/28 02:21:56;;;;;;;;;;;21.50;30.60;;;;;;474151;251;1335;-39
2022/02/28 02:23:57;;;;;;;;;;;21.50;30.50;;;;;;476042;249;1101;-39
2022/02/28 02:25:59;;;;;;;;;;;21.50;30.50;;;;;;473324;252;1390;-39
2022/02/28 02:28:00;;;;;;;;;;;21.50;30.60;;;;;;474165;251;1187;-39
2022/02/28 02:30:01;;;;;;;;;;;21.50;30.60;;;;;;476032;249;2126;-39
2022/02/28 02:32:03;;;;;;;;;;;21.50;30.60;;;;;;473701;252;1096;-39
2022/02/28 02:34:04;;;;;;;;;;;21.50;30.50;;;;;;474203;251;1132;-39
2022/02/28 02:36:05;;;;;;;;;;;21.50;30.60;;;;;;476182;249;1316;-39
2022/02/28 02:38:07;;;;;;;;;;;21.50;30.60;;;;;;473321;252;1169;-39
2022/02/28 02:40:08;;;;;;;;;;;21.50;30.60;;;;;;474208;251;1065;-39
2022/02/28 02:42:09;;;;;;;;;;;21.50;30.60;;;;;;476158;249;1554;-39
2022/02/28 02:44:11;;;;;;;;;;;21.50;30.60;;;;;;473663;252;1258;-39
2022/02/28 02:46:12;;;;;;;;;;;21.50;30.50;;;;;;474042;251;1156;-39
2022/02/28 02:48:13;;;;;;;;;;;21.50;30.60;;;;;;476445;249;2192;-39
2022/02/28 02:50:15;;;;;;;;;;;21.50;30.60;;;;;;473474;252;1287;-39
2022/02/28 02:52:16;;;;;;;;;;;21.50;30.60;;;;;;473822;251;1334;-39
2022/02/28 02:54:17;;;;;;;;;;;21.50;30.50;;;;;;476046;249;1101;-39
2022/02/28 02:56:19;;;;;;;;;;;21.50;30.50;;;;;;473625;252;1481;-39
2022/02/28 02:58:20;;;;;;;;;;;21.50;30.60;;;;;;473869;251;1227;-39
2022/02/28 03:00:21;;;;;;;;;;;21.50;30.50;;;;;;476000;249;1070;-39
2022/02/28 03:02:23;;;;;;;;;;;21.60;30.50;;;;;;473223;252;1229;-39
2022/02/28 03:04:24;;;;;;;;;;;21.50;30.50;;;;;;473860;251;1220;-39
2022/02/28 03:06:25;;;;;;;;;;;21.50;30.50;;;;;;475989;250;1304;-39
2022/02/28 03:08:27;;;;;;;;;;;21.60;30.50;;;;;;473554;252;2131;-39
2022/02/28 03:10:28;;;;;;;;;;;21.60;30.50;;;;;;474206;251;1163;-39
2022/02/28 03:12:29;;;;;;;;;;;21.50;30.50;;;;;;476241;249;1514;-39
2022/02/28 03:14:30;;;;;;;;;;;21.60;30.60;;;;;;473324;252;1225;-39
2022/02/28 03:16:32;;;;;;;;;;;21.60;30.60;;;;;;474030;251;1492;-39
2022/02/28 03:18:33;;;;;;;;;;;21.50;30.60;;;;;;476435;249;1038;-39
2022/02/28 03:20:34;;;;;;;;;;;21.50;30.60;;;;;;473322;252;1176;-39
2022/02/28 03:22:36;;;;;;;;;;;21.50;30.60;;;;;;473816;251;1178;-40
2022/02/28 03:24:37;;;;;;;;;;;21.50;30.60;;;;;;476455;249;1065;-39
2022/02/28 03:26:38;;;;;;;;;;;21.50;30.60;;;;;;473246;252;1434;-39
2022/02/28 03:28:40;;;;;;;;;;;21.40;30.60;;;;;;473973;251;2261;-39
2022/02/28 03:30:41;;;;;;;;;;;21.50;30.60;;;;;;476426;249;1205;-39
2022/02/28 03:32:42;;;;;;;;;;;21.50;30.60;;;;;;473342;252;1226;-39
2022/02/28 03:34:44;;;;;;;;;;;21.50;30.60;;;;;;474172;251;1057;-39
2022/02/28 03:36:45;;;;;;;;;;;21.50;30.60;;;;;;476074;249;1299;-39
2022/02/28 03:38:46;;;;;;;;;;;21.50;30.60;;;;;;473712;252;1070;-39
2022/02/28 03:40:48;;;;;;;;;;;21.50;30.60;;;;;;474137;251;1127;-39
2022/02/28 03:42:49;;;;;;;;;;;21.50;30.60;;;;;;476046;249;1509;-39
2022/02/28 03:44:50;;;;;;;;;;;21.50;30.60;;;;;;473760;252;1087;-39
2022/02/28 03:46:52;;;;;;;;;;;21.50;30.60;;;;;;473907;251;1322;-39
2022/02/28 03:48:53;;;;;;;;;;;21.50;30.60;;;;;;476477;249;2192;-39
2022/02/28 03:50:54;;;;;;;;;;;21.50;30.60;;;;;;473347;252;1261;-39
2022/02/28 03:52:55;;;;;;;;;;;21.50;30.70;;;;;;474135;251;1182;-39
2022/02/28 03:54:57;;;;;;;;;;;21.50;30.60;;;;;;476031;249;1057;-39
2022/02/28 03:56:58;;;;;;;;;;;21.40;30.60;;;;;;473669;252;1407;-39
2022/02/28 03:58:59;;;;;;;;;;;21.40;30.70;;;;;;473725;251;1056;-39
2022/02/28 04:01:01;;;;;;;;;;;21.40;30.70;;;;;;476456;249;1097;-39
2022/02/28 04:03:02;;;;;;;;;;;21.40;30.70;;;;;;473451;252;1216;-39
2022/02/28 04:05:03;;;;;;;;;;;21.50;30.70;;;;;;473830;251;1042;-39
2022/02/28 04:07:05;;;;;;;;;;;21.40;30.70;;;;;;476017;249;1174;-39
2022/02/28 04:09:06;;;;;;;;;;;21.50;30.70;;;;;;473341;252;2135;-39
2022/02/28 04:11:07;;;;;;;;;;;21.50;30.60;;;;;;474092;251;1325;-39
2022/02/28 04:13:09;;;;;;;;;;;21.40;30.60;;;;;;476472;249;1245;-39
2022/02/28 04:15:10;;;;;;;;;;;21.40;30.60;;;;;;473353;252;1041;-39
2022/02/28 04:17:11;;;;;;;;;;;21.50;30.60;;;;;;473830;251;1352;-39
2022/02/28 04:19:14;;;;;;;;;;;21.50;30.50;;;;;;476033;250;1060;-39
2022/02/28 04:21:14;;;;;;;;;;;21.50;30.50;;;;;;473214;252;2496;-39
2022/02/28 04:23:15;;;;;;;;;;;21.50;30.60;;;;;;474076;251;1032;-39
2022/02/28 04:25:17;;;;;;;;;;;21.50;30.50;;;;;;476472;249;1040;-39
2022/02/28 04:27:18;;;;;;;;;;;21.40;30.50;;;;;;473681;252;1343;-39
2022/02/28 04:29:19;;;;;;;;;;;21.40;30.50;;;;;;474119;251;2122;-39
2022/02/28 04:31:21;;;;;;;;;;;21.40;30.50;;;;;;476395;249;1293;-39
2022/02/28 04:33:22;;;;;;;;;;;21.40;30.60;;;;;;473277;252;1139;-39
2022/02/28 04:35:23;;;;;;;;;;;21.40;30.60;;;;;;473804;251;1076;-39
2022/02/28 04:37:25;;;;;;;;;;;21.40;30.60;;;;;;476184;249;1343;-39
2022/02/28 04:39:26;;;;;;;;;;;21.40;30.60;;;;;;473573;252;1205;-39
2022/02/28 04:41:27;;;;;;;;;;;21.40;30.60;;;;;;473900;251;1285;-39
2022/02/28 04:43:29;;;;;;;;;;;21.40;30.60;;;;;;476477;249;977;-39
2022/02/28 04:45:30;;;;;;;;;;;21.40;30.60;;;;;;473699;252;1141;-39
2022/02/28 04:47:31;;;;;;;;;;;21.40;30.60;;;;;;473715;251;1264;-39
2022/02/28 04:49:33;;;;;;;;;;;21.40;30.50;;;;;;476526;249;2129;-39
2022/02/28 04:51:34;;;;;;;;;;;21.50;30.50;;;;;;473381;252;1224;-39
2022/02/28 04:53:35;;;;;;;;;;;21.40;30.50;;;;;;473763;251;1053;-39
2022/02/28 04:55:37;;;;;;;;;;;21.40;30.50;;;;;;476204;249;1307;-39
2022/02/28 04:57:38;;;;;;;;;;;21.40;30.50;;;;;;473552;252;1200;-39
2022/02/28 04:59:39;;;;;;;;;;;21.40;30.50;;;;;;474138;251;1114;-39
2022/02/28 05:01:41;;;;;;;;;;;21.50;30.50;;;;;;476158;249;1419;-39
2022/02/28 05:03:42;;;;;;;;;;;21.40;30.50;;;;;;473408;252;1043;-39
2022/02/28 05:05:43;;;;;;;;;;;21.40;30.50;;;;;;474084;251;1513;-39
2022/02/28 05:07:46;;;;;;;;;;;21.40;30.60;;;;;;475953;249;1218;-39
2022/02/28 05:09:46;;;;;;;;;;;21.40;30.50;;;;;;473337;252;2248;-39
2022/02/28 05:11:47;;;;;;;;;;;21.40;30.50;;;;;;473791;251;1293;-39
2022/02/28 05:13:49;;;;;;;;;;;21.40;30.50;;;;;;476015;249;1023;-39
2022/02/28 05:15:50;;;;;;;;;;;21.40;30.50;;;;;;473700;252;1493;-39
2022/02/28 05:17:52;;;;;;;;;;;21.40;30.50;;;;;;474103;251;1216;-39
2022/02/28 05:19:53;;;;;;;;;;;21.40;30.50;;;;;;475921;249;1006;-39
2022/02/28 05:21:54;;;;;;;;;;;21.40;30.50;;;;;;473156;252;1203;-39
2022/02/28 05:23:56;;;;;;;;;;;21.40;30.50;;;;;;474164;251;1138;-39
2022/02/28 05:25:57;;;;;;;;;;;21.40;30.50;;;;;;476142;249;1214;-39
2022/02/28 05:27:58;;;;;;;;;;;21.40;30.40;;;;;;473407;252;1062;-39
2022/02/28 05:30:00;;;;;;;;;;;21.40;30.40;;;;;;473621;251;2185;-39
2022/02/28 05:32:01;;;;;;;;;;;21.50;30.40;;;;;;476176;249;1416;-39
2022/02/28 05:34:02;;;;;;;;;;;21.40;30.40;;;;;;473143;252;1136;-39
2022/02/28 05:36:04;;;;;;;;;;;21.50;30.40;;;;;;473498;251;1163;-39
2022/02/28 05:38:05;;;;;;;;;;;21.50;30.30;;;;;;476083;249;1260;-39
2022/02/28 05:40:06;;;;;;;;;;;21.50;30.40;;;;;;473148;252;1016;-39
2022/02/28 05:42:08;;;;;;;;;;;21.50;30.40;;;;;;473617;251;1347;-39
2022/02/28 05:44:09;;;;;;;;;;;21.50;30.40;;;;;;476187;249;1090;-39
2022/02/28 05:46:11;;;;;;;;;;;21.40;30.40;;;;;;473620;252;1126;-39
2022/02/28 05:48:12;;;;;;;;;;;21.40;30.40;;;;;;473564;252;1940;-39
2022/02/28 05:50:13;;;;;;;;;;;21.40;30.50;;;;;;475803;249;2212;-39
2022/02/28 05:52:15;;;;;;;;;;;21.50;30.50;;;;;;473156;252;1292;-39
2022/02/28 05:54:16;;;;;;;;;;;21.40;30.40;;;;;;473685;251;1106;-39
2022/02/28 05:56:17;;;;;;;;;;;21.40;30.40;;;;;;475861;249;1303;-39
2022/02/28 05:58:19;;;;;;;;;;;21.40;30.40;;;;;;473150;252;1235;-39
2022/02/28 06:00:20;;;;;;;;;;;21.50;30.50;;;;;;473695;251;1087;-39
2022/02/28 06:02:21;;;;;;;;;;;21.40;30.40;;;;;;475942;249;1361;-39
2022/02/28 06:04:23;;;;;;;;;;;21.50;30.50;;;;;;473304;252;1053;-39
2022/02/28 06:06:24;;;;;;;;;;;21.40;30.40;;;;;;473519;251;1430;-39
2022/02/28 06:08:25;;;;;;;;;;;21.50;30.40;;;;;;476009;249;1215;-39
2022/02/28 06:10:26;;;;;;;;;;;21.50;30.40;;;;;;473538;252;2197;-39
2022/02/28 06:12:28;;;;;;;;;;;21.50;30.40;;;;;;473513;251;1308;-39
2022/02/28 06:14:29;;;;;;;;;;;21.50;30.40;;;;;;475883;249;1091;-39
2022/02/28 06:16:30;;;;;;;;;;;21.50;30.50;;;;;;473000;252;1230;-39
2022/02/28 06:18:32;;;;;;;;;;;21.50;30.50;;;;;;473764;247;1194;-39
2022/02/28 06:20:33;;;;;;;;;;;21.40;30.40;;;;;;475790;249;1431;-39
2022/02/28 06:22:34;;;;;;;;;;;21.40;30.40;;;;;;472972;252;1162;-39
2022/02/28 06:24:36;;;;;;;;;;;21.50;30.40;;;;;;473385;251;1249;-39
2022/02/28 06:26:37;;;;;;;;;;;21.50;30.30;;;;;;475681;249;1504;-39
2022/02/28 06:28:38;;;;;;;;;;;21.50;30.30;;;;;;473041;252;1083;-39
2022/02/28 06:30:40;;;;;;;;;;;21.50;30.30;;;;;;473415;251;2154;-39
2022/02/28 06:32:41;;;;;;;;;;;21.50;30.40;;;;;;475718;249;1174;-39
2022/02/28 06:34:43;;;;;;;;;;;21.50;30.40;;;;;;473042;252;1058;-39
2022/02/28 06:36:44;;;;;;;;;;;21.50;30.40;;;;;;473225;252;2003;-39
2022/02/28 06:38:45;;;;;;;;;;;21.50;30.40;;;;;;475660;249;1196;-39
2022/02/28 06:40:46;;;;;;;;;;;21.50;30.40;;;;;;472851;252;1305;-39
2022/02/28 06:42:47;;;;;;;;;;;21.40;30.40;;;;;;473308;251;1145;-39
2022/02/28 06:44:49;;;;;;;;;;;21.40;30.40;;;;;;475726;249;1236;-39
2022/02/28 06:46:52;;;;;;;;;;;21.50;30.50;;;;;;472969;252;1332;-39
2022/02/28 06:48:51;;;;;;;;;;;21.50;30.50;;;;;;473391;252;2327;-39
2022/02/28 06:50:53;;;;;;;;;;;21.40;30.40;;;;;;475623;249;2141;-39
2022/02/28 06:52:54;;;;;;;;;;;21.50;30.50;;;;;;472913;252;1156;-39
2022/02/28 06:54:56;;;;;;;;;;;21.40;30.40;;;;;;473188;251;1172;-39
2022/02/28 06:56:58;;;;;;;;;;;21.50;30.40;;;;;;475492;249;1342;-39
2022/02/28 06:58:59;;;;;;;;;;;21.40;30.40;;;;;;472762;252;1131;-39
2022/02/28 07:01:00;;;;;;;;;;;21.40;30.40;;;;;;473331;251;1125;-39
2022/02/28 07:03:02;;;;;;;;;;;21.40;30.40;;;;;;475453;249;1301;-39
2022/02/28 07:05:03;;;;;;;;;;;21.50;30.40;;;;;;472810;252;1081;-39
2022/02/28 07:07:04;;;;;;;;;;;21.50;30.40;;;;;;473329;251;1395;-39
2022/02/28 07:09:07;;;;;;;;;;;21.50;30.50;;;;;;475634;249;1215;-39
2022/02/28 07:11:07;;;;;;;;;;;21.50;30.40;;;;;;472829;252;2272;-39
2022/02/28 07:13:08;;;;;;;;;;;21.50;30.40;;;;;;473326;251;1029;-39
2022/02/28 07:15:10;;;;;;;;;;;21.50;30.40;;;;;;475490;249;1093;-39
2022/02/28 07:17:11;;;;;;;;;;;21.50;30.40;;;;;;472737;252;1339;-39
2022/02/28 07:19:13;;;;;;;;;;;21.50;30.40;;;;;;473376;251;1354;-39
2022/02/28 07:21:13;;;;;;;;;;;21.50;30.40;;;;;;475509;249;1391;-39
2022/02/28 07:23:15;;;;;;;;;;;21.50;30.40;;;;;;472771;252;1271;-39
2022/02/28 07:25:16;;;;;;;;;;;21.50;30.40;;;;;;473027;251;1192;-39
2022/02/28 07:27:17;;;;;;;;;;;21.50;30.30;;;;;;475383;249;1196;-39
2022/02/28 07:29:19;;;;;;;;;;;21.50;30.30;;;;;;472792;252;1067;-39
2022/02/28 07:31:20;;;;;;;;;;;21.50;30.20;;;;;;473172;251;2126;-39
2022/02/28 07:33:21;;;;;;;;;;;21.50;30.30;;;;;;475442;249;1140;-39
2022/02/28 07:35:23;;;;;;;;;;;21.50;30.30;;;;;;472398;252;1078;-39
2022/02/28 07:37:24;;;;;;;;;;;21.60;30.30;;;;;;473006;251;1462;-39
2022/02/28 07:39:26;;;;;;;;;;;21.50;30.20;;;;;;475352;249;1186;-39
2022/02/28 07:41:27;;;;;;;;;;;21.50;30.20;;;;;;472620;252;2332;-39
2022/02/28 07:43:28;;;;;;;;;;;21.50;30.20;;;;;;473418;251;1126;-39
2022/02/28 07:45:30;;;;;;;;;;;21.60;30.20;;;;;;475594;249;1340;-39
2022/02/28 07:47:31;;;;;;;;;;;21.60;30.20;;;;;;472711;252;1728;-39
2022/02/28 07:49:35;;;;;;;;;;;21.60;30.20;;;;;;473215;251;1069;-39
2022/02/28 07:51:33;;;;;;;;;;;21.60;30.10;;;;;;475084;250;2192;-39
2022/02/28 07:53:35;;;;;;;;;;;21.60;30.10;;;;;;472696;252;1180;-39
2022/02/28 07:55:36;;;;;;;;;;;21.60;30.10;;;;;;472978;251;1442;-39
2022/02/28 07:57:38;;;;;;;;;;;21.60;30.10;;;;;;475179;249;1364;-39
2022/02/28 07:59:40;;;;;;;;;;;21.60;30.10;;;;;;472573;252;1938;-39
2022/02/28 08:01:40;;;;;;;;;;;21.60;30.10;;;;;;472970;252;2184;-39
2022/02/28 08:03:41;;;;;;;;;;;21.60;30.10;;;;;;475457;249;1073;-39
2022/02/28 08:05:43;;;;;;;;;;;21.60;30.10;;;;;;472806;252;1379;-40
2022/02/28 08:07:44;;;;;;;;;;;21.50;30.00;;;;;;472941;251;1150;-39
2022/02/28 08:09:45;;;;;;;;;;;21.60;30.10;;;;;;475397;249;1163;-39
2022/02/28 08:11:47;;;;;;;;;;;21.60;30.10;;;;;;472611;252;2197;-39
2022/02/28 08:13:48;;;;;;;;;;;21.50;30.00;;;;;;473189;251;1075;-39
2022/02/28 08:15:50;;;;;;;;;;;21.60;30.10;;;;;;475233;249;1487;-39
2022/02/28 08:17:51;;;;;;;;;;;21.60;30.00;;;;;;472703;252;1575;-39
2022/02/28 08:19:52;;;;;;;;;;;21.60;30.00;;;;;;473052;251;1203;-40
2022/02/28 08:21:54;;;;;;;;;;;21.60;30.00;;;;;;475416;249;1331;-39
2022/02/28 08:23:55;;;;;;;;;;;21.70;30.00;;;;;;472834;252;1317;-39
2022/02/28 08:25:56;;;;;;;;;;;21.70;30.00;;;;;;473084;251;1558;-39
2022/02/28 08:27:57;;;;;;;;;;;21.60;30.00;;;;;;475393;249;1227;-39
2022/02/28 08:29:59;;;;;;;;;;;21.70;30.00;;;;;;472574;252;1211;-39
2022/02/28 08:32:01;;;;;;;;;;;21.60;30.00;;;;;;472914;251;2186;-39
2022/02/28 08:34:02;;;;;;;;;;;21.60;30.00;;;;;;475806;249;996;-39
2022/02/28 08:36:03;;;;;;;;;;;21.60;30.00;;;;;;473027;252;1534;-39
2022/02/28 08:38:05;;;;;;;;;;;21.60;30.00;;;;;;472804;251;1121;-39
2022/02/28 08:40:06;;;;;;;;;;;21.60;30.00;;;;;;474881;249;1163;-39
2022/02/28 08:42:08;;;;;;;;;;;21.60;30.00;;;;;;472187;252;1308;-39
2022/02/28 08:44:09;;;;;;;;;;;21.70;30.00;;;;;;473266;251;750;-39
2022/02/28 08:46:10;;;;;;;;;;;21.60;30.00;;;;;;475629;244;1326;-39
2022/02/28 08:48:11;;;;;;;;;;;21.60;30.00;;;;;;472481;252;1128;-39
2022/02/28 08:50:16;;;;;;;;;;;21.50;30.00;;;;;;472935;251;1117;-39
2022/02/28 08:52:14;;;;;;;;;;;21.60;30.00;;;;;;475143;250;2128;-39
2022/02/28 08:54:15;;;;;;;;;;;21.60;30.00;;;;;;472493;252;1139;-39
2022/02/28 08:56:17;;;;;;;;;;;21.60;30.00;;;;;;472887;251;1268;-39
2022/02/28 08:58:18;;;;;;;;;;;21.60;30.00;;;;;;475248;249;1070;-39
2022/02/28 09:00:20;;;;;;;;;;;21.60;30.00;;;;;;472742;252;1065;-39
2022/02/28 09:02:21;;;;;;;;;;;21.60;30.00;;;;;;472948;251;1202;-39
2022/02/28 09:04:22;;;;;;;;;;;21.60;30.00;;;;;;475172;249;1183;-39
2022/02/28 09:06:24;;;;;;;;;;;21.60;30.00;;;;;;472509;252;1330;-39
2022/02/28 09:08:25;;;;;;;;;;;21.60;30.00;;;;;;473036;251;1171;-39
2022/02/28 09:10:26;;;;;;;;;;;21.60;30.00;;;;;;475043;249;2196;-39
2022/02/28 09:12:28;;;;;;;;;;;21.60;30.00;;;;;;472475;252;1445;-39
2022/02/28 09:14:29;;;;;;;;;;;21.50;30.00;;;;;;473099;251;1176;-39
2022/02/28 09:16:31;;;;;;;;;;;21.60;30.00;;;;;;475166;249;1698;-39
2022/02/28 09:18:33;;;;;;;;;;;21.60;29.90;;;;;;472925;252;1090;-39
2022/02/28 09:20:33;;;;;;;;;;;21.60;29.90;;;;;;472942;251;2107;-39
2022/02/28 09:22:35;;;;;;;;;;;21.60;29.90;;;;;;475164;249;1208;-39
2022/02/28 09:24:36;;;;;;;;;;;21.60;29.90;;;;;;472566;252;1100;-39
2022/02/28 09:26:37;;;;;;;;;;;21.60;30.00;;;;;;472907;251;1150;-39
2022/02/28 09:28:39;;;;;;;;;;;21.60;30.00;;;;;;475401;249;1082;-39
2022/02/28 09:30:40;;;;;;;;;;;21.60;29.90;;;;;;472700;252;2130;-39
2022/02/28 09:32:41;;;;;;;;;;;21.60;29.90;;;;;;472870;251;1154;-39
2022/02/28 09:34:43;;;;;;;;;;;21.60;29.90;;;;;;475163;249;1107;-39
2022/02/28 09:36:44;;;;;;;;;;;21.60;30.00;;;;;;472434;252;1266;-39
2022/02/28 09:38:45;;;;;;;;;;;21.60;29.90;;;;;;473043;251;1097;-39
2022/02/28 09:40:49;;;;;;;;;;;21.60;30.00;;;;;;475310;249;1273;-39
2022/02/28 09:42:48;;;;;;;;;;;21.60;30.00;;;;;;472529;252;2195;-39
2022/02/28 09:44:50;;;;;;;;;;;21.50;29.90;;;;;;473148;251;1116;-39
2022/02/28 09:46:51;;;;;;;;;;;21.50;29.90;;;;;;475247;249;2032;-39
2022/02/28 09:48:52;;;;;;;;;;;21.60;30.00;;;;;;472660;252;1079;-39
2022/02/28 09:50:53;;;;;;;;;;;21.60;29.90;;;;;;472963;251;2205;-39
2022/02/28 09:52:55;;;;;;;;;;;21.60;29.90;;;;;;475333;249;1189;-39
2022/02/28 09:54:56;;;;;;;;;;;21.60;29.90;;;;;;472662;252;1076;-39
2022/02/28 09:56:57;;;;;;;;;;;21.50;29.90;;;;;;472793;251;1530;-39
2022/02/28 09:58:58;;;;;;;;;;;21.50;29.90;;;;;;475192;249;1073;-39
2022/02/28 10:01:00;;;;;;;;;;;21.50;29.90;;;;;;472455;252;1207;-39
2022/02/28 10:03:01;;;;;;;;;;;21.60;29.90;;;;;;473003;251;1537;-39
2022/02/28 10:05:03;;;;;;;;;;;21.60;29.90;;;;;;475478;249;1085;-39
2022/02/28 10:07:04;;;;;;;;;;;21.60;29.80;;;;;;472605;252;1373;-39
2022/02/28 10:09:07;;;;;;;;;;;21.60;29.90;;;;;;472876;251;1054;-39
2022/02/28 10:11:07;;;;;;;;;;;21.60;29.90;;;;;;475175;250;2215;-39
2022/02/28 10:13:08;;;;;;;;;;;21.50;29.90;;;;;;472465;252;1099;-39
2022/02/28 10:15:09;;;;;;;;;;;21.60;29.90;;;;;;473302;251;1109;-39
2022/02/28 10:17:11;;;;;;;;;;;21.60;29.90;;;;;;475396;249;1220;-39
2022/02/28 10:19:12;;;;;;;;;;;21.50;29.90;;;;;;472656;252;1178;-39
2022/02/28 10:21:13;;;;;;;;;;;21.60;29.80;;;;;;472997;251;1129;-39
2022/02/28 10:23:16;;;;;;;;;;;21.60;29.80;;;;;;475420;249;1069;-39
2022/02/28 10:25:16;;;;;;;;;;;21.60;29.80;;;;;;472334;252;1561;-39
2022/02/28 10:27:18;;;;;;;;;;;21.60;29.80;;;;;;472575;251;1224;-39
2022/02/28 10:29:19;;;;;;;;;;;21.60;29.80;;;;;;475141;249;1826;-39
2022/02/28 10:31:24;;;;;;;;;;;21.60;29.80;;;;;;464826;252;3089;-39
2022/02/28 10:33:21;;;;;;;;;;;21.60;29.80;;;;;;472800;252;2136;-39
2022/02/28 10:37:42;;;;;;;;;;;21.70;29.80;;;;;;473007;250;1113;-39
2022/02/28 10:39:43;;;;;;;;;;;21.70;29.70;;;;;;472868;251;1091;-39
2022/02/28 10:41:45;;;;;;;;;;;21.70;29.80;;;;;;475290;249;1391;-39
2022/02/28 10:43:46;;;;;;;;;;;21.70;29.80;;;;;;472728;252;1184;-39
2022/02/28 10:45:47;;;;;;;;;;;21.70;29.80;;;;;;472930;251;1198;-39
2022/02/28 10:47:48;;;;;;;;;;;21.70;29.80;;;;;;475638;249;1130;-39
2022/02/28 10:49:50;;;;;;;;;;;21.70;29.80;;;;;;472670;252;1189;-39
2022/02/28 10:51:51;;;;;;;;;;;21.70;29.70;;;;;;473009;251;2197;-39
2022/02/28 10:53:52;;;;;;;;;;;21.70;29.70;;;;;;475578;249;1069;-39
2022/02/28 10:55:54;;;;;;;;;;;21.70;29.70;;;;;;472472;252;1341;-39
2022/02/28 10:57:55;;;;;;;;;;;21.70;29.70;;;;;;472706;251;1092;-39
2022/02/28 10:59:56;;;;;;;;;;;21.70;29.70;;;;;;475108;249;1577;-39
2022/02/28 11:01:58;;;;;;;;;;;21.70;29.60;;;;;;472345;252;1320;-39
2022/02/28 11:06:19;;;;;;;;;;;21.80;29.60;;;;;;477653;244;3633;-39
2022/02/28 11:08:21;;;;;;;;;;;21.80;29.50;;;;;;484678;246;1157;-39
2022/02/28 11:10:22;;;;;;;;;;;21.80;29.60;;;;;;477520;249;1390;-39
2022/02/28 11:12:23;;;;;;;;;;;21.80;29.60;;;;;;476495;250;2198;-39
2022/02/28 11:14:25;;;;;;;;;;;21.80;29.50;;;;;;477538;249;1102;-39
2022/02/28 11:16:26;;;;;;;;;;;21.80;29.50;;;;;;476499;243;1153;-39
2022/02/28 11:18:27;;;;;;;;;;;21.80;29.50;;;;;;477437;249;1164;-38
2022/02/28 11:20:29;;;;;;;;;;;21.80;29.50;;;;;;476717;250;1222;-38
2022/02/28 11:22:30;;;;;;;;;;;21.70;29.50;;;;;;477510;249;1101;-39
2022/02/28 11:24:31;;;;;;;;;;;21.70;29.50;;;;;;476596;250;1085;-39
2022/02/28 11:26:33;;;;;;;;;;;21.80;29.50;;;;;;477530;249;1355;-39
2022/02/28 11:28:34;;;;;;;;;;;21.70;29.50;;;;;;476369;250;1111;-39
2022/02/28 11:30:35;;;;;;;;;;;21.70;29.50;;;;;;477398;249;1414;-39
2022/02/28 11:32:37;;;;;;;;;;;21.80;29.50;;;;;;476978;250;2218;-39
2022/02/28 11:34:38;;;;;;;;;;;21.80;29.40;;;;;;477443;249;1158;-39
2022/02/28 11:36:40;;;;;;;;;;;21.80;29.40;;;;;;476420;250;1286;-39
2022/02/28 11:38:41;;;;;;;;;;;21.80;29.40;;;;;;477382;249;1181;-39
2022/02/28 11:40:43;;;;;;;;;;;21.80;29.50;;;;;;476385;246;1464;-39
2022/02/28 11:42:44;;;;;;;;;;;21.80;29.40;;;;;;477443;249;1202;-39
2022/02/28 11:44:45;;;;;;;;;;;21.80;29.50;;;;;;476509;250;1105;-39
2022/02/28 11:46:47;;;;;;;;;;;21.70;29.50;;;;;;477484;249;1259;-39
2022/02/28 11:48:49;;;;;;;;;;;21.70;29.50;;;;;;476553;250;1051;-38
2022/02/28 11:50:49;;;;;;;;;;;21.70;29.50;;;;;;477440;249;2352;-39
2022/02/28 11:52:50;;;;;;;;;;;21.70;29.50;;;;;;477019;250;2203;-39
2022/02/28 11:54:52;;;;;;;;;;;21.70;29.50;;;;;;477628;249;679;-39
2022/02/28 11:56:54;;;;;;;;;;;21.70;29.50;;;;;;476339;250;1154;-39
2022/02/28 11:58:56;;;;;;;;;;;21.70;29.50;;;;;;477363;249;1118;-39
2022/02/28 12:00:57;;;;;;;;;;;21.70;29.50;;;;;;476450;250;1568;-39